Time;durP1;ratioP1;P1;durP2;ratioP2;P2;SDS_P1;SDS_P2;PMS_P1;PMS_P2;Temp;Humidity;BMP_temperature;BMP_pressure;BME280_temperature;BME280_humidity;BME280_pressure;Samples;Min_cycle;Max_cycle;Signal;HPM_P1;HPM_P2
2021/07/13 00:00:25;;;;;;;7.85;7.05;;;19.10;86.70;;;;;;2056273;28;20027;-85
2021/07/13 00:01:26;;;;;;;7.88;7.07;;;19.10;86.70;;;;;;2064880;28;20508;-85
2021/07/13 00:02:26;;;;;;;8.15;7.35;;;19.10;86.60;;;;;;2072814;28;20033;-86
2021/07/13 00:03:27;;;;;;;8.75;7.85;;;19.10;86.70;;;;;;2072572;28;20073;-85
2021/07/13 00:04:28;;;;;;;8.65;7.75;;;19.10;86.60;;;;;;2056663;28;20046;-86
2021/07/13 00:05:29;;;;;;;9.10;8.20;;;19.10;86.60;;;;;;2056720;28;20026;-85
2021/07/13 00:06:29;;;;;;;9.05;8.15;;;19.10;86.60;;;;;;2065124;28;20030;-86
2021/07/13 00:07:30;;;;;;;9.43;8.52;;;19.10;86.50;;;;;;2072937;28;20021;-85
2021/07/13 00:08:31;;;;;;;10.20;9.13;;;19.20;86.60;;;;;;2058041;28;20062;-85
2021/07/13 00:09:31;;;;;;;9.30;8.10;;;19.10;86.50;;;;;;2064606;28;20040;-85
2021/07/13 00:10:36;;;;;;;9.55;8.65;;;19.10;86.50;;;;;;2062740;28;20027;-85
2021/07/13 00:11:36;;;;;;;9.43;8.52;;;19.10;86.50;;;;;;2065636;28;20149;-85
2021/07/13 00:12:37;;;;;;;9.73;8.73;;;19.10;86.50;;;;;;2056808;28;20023;-85
2021/07/13 00:13:38;;;;;;;10.00;9.00;;;19.10;86.60;;;;;;2064427;28;20037;-85
2021/07/13 00:14:39;;;;;;;10.40;9.30;;;19.10;86.70;;;;;;2064922;28;20023;-85
2021/07/13 00:15:42;;;;;;;10.32;9.32;;;19.00;86.60;;;;;;2081032;28;20025;-85
2021/07/13 00:16:42;;;;;;;10.18;9.18;;;19.00;86.60;;;;;;2081159;28;20028;-85
2021/07/13 00:17:43;;;;;;;10.70;9.60;;;19.00;86.70;;;;;;2072918;28;20041;-85
2021/07/13 00:18:44;;;;;;;10.30;9.30;;;19.00;86.70;;;;;;2072762;28;20469;-86
2021/07/13 00:19:45;;;;;;;11.15;10.05;;;19.00;86.70;;;;;;2072945;28;20022;-85
2021/07/13 00:20:45;;;;;;;10.27;9.27;;;19.00;86.70;;;;;;2080914;28;20029;-85
2021/07/13 00:21:46;;;;;;;10.52;9.48;;;19.00;86.80;;;;;;2064607;28;20125;-85
2021/07/13 00:22:47;;;;;;;10.27;9.18;;;19.00;86.80;;;;;;2064783;28;20031;-86
2021/07/13 00:23:48;;;;;;;10.20;9.20;;;19.00;86.80;;;;;;2081039;28;20508;-85
2021/07/13 00:24:48;;;;;;;10.23;9.23;;;18.90;86.60;;;;;;2064794;28;20034;-85
2021/07/13 00:25:49;;;;;;;10.40;9.30;;;19.00;86.70;;;;;;2056665;28;20035;-85
2021/07/13 00:26:50;;;;;;;10.50;9.50;;;19.00;86.80;;;;;;2064743;28;20085;-85
2021/07/13 00:27:51;;;;;;;10.88;9.77;;;18.90;86.80;;;;;;2059864;28;20038;-85
2021/07/13 00:28:52;;;;;;;10.52;9.52;;;19.00;86.80;;;;;;2081198;28;20032;-85
2021/07/13 00:29:52;;;;;;;10.60;9.60;;;18.90;86.90;;;;;;2072876;28;20029;-85
2021/07/13 00:30:53;;;;;;;10.95;9.85;;;18.90;86.90;;;;;;2064760;28;20046;-85
2021/07/13 00:31:54;;;;;;;10.13;9.13;;;18.90;86.90;;;;;;2080607;28;20056;-85
2021/07/13 00:32:54;;;;;;;10.77;9.68;;;18.90;86.90;;;;;;2072855;28;20104;-85
2021/07/13 00:33:57;;;;;;;10.90;9.80;;;18.90;86.90;;;;;;2064409;28;20122;-85
2021/07/13 00:34:58;;;;;;;10.93;9.82;;;19.00;86.90;;;;;;2065426;28;20397;-85
2021/07/13 00:35:59;;;;;;;10.90;9.80;;;19.00;86.90;;;;;;2065018;28;20022;-85
2021/07/13 00:36:59;;;;;;;10.60;9.60;;;19.00;86.90;;;;;;2056891;28;20046;-85
2021/07/13 00:38:00;;;;;;;11.05;9.95;;;19.00;86.80;;;;;;2064735;28;20026;-85
2021/07/13 00:39:01;;;;;;;11.20;9.90;;;19.00;86.80;;;;;;2057169;28;20026;-85
2021/07/13 00:40:02;;;;;;;11.35;10.25;;;19.00;86.80;;;;;;2056813;28;20023;-85
2021/07/13 00:41:03;;;;;;;11.82;10.63;;;19.00;86.80;;;;;;2064406;28;20473;-85
2021/07/13 00:42:04;;;;;;;10.98;9.93;;;19.00;87.50;;;;;;2081399;28;20080;-86
2021/07/13 00:43:04;;;;;;;11.15;10.05;;;18.90;86.80;;;;;;2064609;28;20034;-86
2021/07/13 00:44:05;;;;;;;11.80;10.63;;;18.90;86.80;;;;;;2064854;28;20026;-85
2021/07/13 00:45:07;;;;;;;11.07;9.93;;;18.90;86.90;;;;;;2066948;28;20030;-86
2021/07/13 00:46:08;;;;;;;11.63;10.43;;;18.90;86.90;;;;;;2064735;28;20022;-85
2021/07/13 00:47:10;;;;;;;10.98;9.88;;;18.90;86.90;;;;;;2064566;28;20098;-85
2021/07/13 00:48:11;;;;;;;11.57;10.38;;;18.90;87.00;;;;;;2064799;28;20105;-86
2021/07/13 00:49:14;;;;;;;12.15;10.95;;;18.90;87.00;;;;;;2064436;28;20504;-85
2021/07/13 00:50:16;;;;;;;11.07;9.98;;;18.90;87.00;;;;;;2064600;28;20084;-85
2021/07/13 00:51:17;;;;;;;10.95;9.85;;;18.90;87.00;;;;;;2057256;28;20077;-85
2021/07/13 00:52:19;;;;;;;11.98;10.77;;;18.90;87.00;;;;;;2072752;28;20038;-85
2021/07/13 00:53:21;;;;;;;11.63;10.43;;;18.90;87.10;;;;;;2064503;28;20129;-85
2021/07/13 00:54:23;;;;;;;12.57;11.10;;;18.90;87.10;;;;;;2057022;28;20038;-85
2021/07/13 00:55:25;;;;;;;12.15;10.85;;;18.90;87.10;;;;;;2056753;28;20070;-85
2021/07/13 00:56:26;;;;;;;11.18;10.07;;;18.90;87.10;;;;;;2056883;28;20398;-85
2021/07/13 00:57:26;;;;;;;12.10;10.90;;;18.90;87.10;;;;;;2068014;28;20037;-85
2021/07/13 00:58:27;;;;;;;11.63;10.52;;;18.90;87.10;;;;;;2066131;28;20031;-85
2021/07/13 00:59:27;;;;;;;12.35;11.05;;;18.90;87.10;;;;;;2072882;28;20080;-85
2021/07/13 01:00:28;;;;;;;11.48;10.38;;;18.90;87.10;;;;;;2064599;28;20031;-85
2021/07/13 01:01:30;;;;;;;11.63;10.50;;;18.80;87.00;;;;;;2056711;28;20105;-85
2021/07/13 01:02:31;;;;;;;12.82;10.07;;;18.90;87.10;;;;;;2072760;28;20049;-85
2021/07/13 01:03:33;;;;;;;10.68;9.68;;;18.90;87.10;;;;;;2089043;28;20144;-85
2021/07/13 01:04:36;;;;;;;11.50;10.30;;;18.90;87.70;;;;;;2072928;28;20037;-85
2021/07/13 01:05:41;;;;;;;10.35;9.25;;;18.90;87.00;;;;;;2073294;28;20022;-85
2021/07/13 01:06:58;;;;;;;10.13;9.13;;;18.90;87.00;;;;;;2089204;28;20036;-85
2021/07/13 01:08:27;;;;;;;10.07;8.95;;;19.00;86.90;;;;;;2088144;28;20028;-85
2021/07/13 01:10:02;;;;;;;9.63;8.63;;;19.00;86.80;;;;;;2084835;28;20028;-85
2021/07/13 01:11:17;;;;;;;9.30;8.35;;;19.00;86.70;;;;;;2082585;28;20113;-85
2021/07/13 01:12:46;;;;;;;9.10;8.20;;;19.00;86.60;;;;;;2083520;28;20022;-85
2021/07/13 01:13:59;;;;;;;8.60;7.70;;;19.00;86.50;;;;;;2090963;28;20037;-86
2021/07/13 01:15:02;;;;;;;8.63;7.72;;;19.10;86.60;;;;;;2090464;28;20124;-86
2021/07/13 01:16:32;;;;;;;9.55;8.55;;;19.10;86.60;;;;;;2082318;28;20387;-85
2021/07/13 01:17:39;;;;;;;9.25;7.72;;;19.10;86.60;;;;;;2072773;28;20060;-85
2021/07/13 01:18:46;;;;;;;8.82;7.85;;;19.10;86.50;;;;;;2082635;28;20537;-85
2021/07/13 01:20:34;;;;;;;8.60;7.70;;;19.10;86.50;;;;;;2083223;28;20499;-85
2021/07/13 01:21:49;;;;;;;9.27;8.32;;;19.10;86.50;;;;;;2065672;28;20081;-86
2021/07/13 01:23:10;;;;;;;9.00;8.10;;;19.10;86.50;;;;;;2067636;28;20392;-85
2021/07/13 01:24:27;;;;;;;8.57;7.65;;;19.10;86.50;;;;;;2073959;28;20524;-86
2021/07/13 01:25:39;;;;;;;8.63;7.72;;;19.10;86.50;;;;;;2073976;28;20025;-85
2021/07/13 01:27:00;;;;;;;10.05;8.75;;;19.20;86.60;;;;;;2065709;28;20049;-85
2021/07/13 01:28:18;;;;;;;10.05;8.75;;;19.20;86.60;;;;;;2085017;28;20507;-85
2021/07/13 01:29:23;;;;;;;8.93;8.02;;;19.20;86.60;;;;;;2090713;28;20415;-85
2021/07/13 01:30:30;;;;;;;10.73;9.40;;;19.20;86.60;;;;;;2090058;28;20104;-85
2021/07/13 01:31:31;;;;;;;10.85;9.70;;;19.10;86.70;;;;;;2090329;28;20455;-85
2021/07/13 01:32:34;;;;;;;11.05;9.95;;;19.10;86.80;;;;;;2082168;28;20022;-85
2021/07/13 01:33:36;;;;;;;10.82;9.73;;;19.10;86.90;;;;;;2073883;28;20036;-85
2021/07/13 01:34:44;;;;;;;10.88;9.77;;;19.10;87.00;;;;;;2082698;28;20414;-85
2021/07/13 01:35:52;;;;;;;11.48;10.38;;;19.10;87.10;;;;;;2089555;28;20052;-85
2021/07/13 01:36:57;;;;;;;11.45;10.25;;;19.10;87.20;;;;;;2083268;28;20581;-85
2021/07/13 01:38:00;;;;;;;11.82;10.63;;;19.00;87.20;;;;;;2090384;28;20032;-85
2021/07/13 01:39:04;;;;;;;12.15;10.85;;;19.00;87.30;;;;;;2082798;28;20411;-85
2021/07/13 01:40:09;;;;;;;12.18;10.98;;;19.00;87.40;;;;;;2065858;28;20034;-85
2021/07/13 01:41:14;;;;;;;12.48;10.95;;;19.10;87.40;;;;;;2066588;28;20408;-85
2021/07/13 01:42:16;;;;;;;12.32;10.40;;;19.00;87.40;;;;;;2074432;28;20528;-85
2021/07/13 01:43:17;;;;;;;10.98;9.88;;;19.10;87.40;;;;;;2074027;28;20373;-85
2021/07/13 01:44:20;;;;;;;10.57;9.48;;;19.10;87.40;;;;;;2066106;28;20026;-85
2021/07/13 01:45:21;;;;;;;10.55;9.55;;;19.10;87.50;;;;;;2082346;28;20041;-86
2021/07/13 01:46:23;;;;;;;10.30;9.20;;;19.10;87.50;;;;;;2066356;28;20473;-86
2021/07/13 01:47:25;;;;;;;10.45;9.38;;;19.10;87.50;;;;;;2059231;28;20031;-86
2021/07/13 01:48:28;;;;;;;10.13;9.13;;;19.10;87.50;;;;;;2074741;28;20516;-85
2021/07/13 01:49:30;;;;;;;10.10;9.07;;;19.20;87.60;;;;;;2074193;28;20034;-86
2021/07/13 01:50:32;;;;;;;11.00;9.90;;;19.10;88.10;;;;;;2073811;28;20432;-86
2021/07/13 01:51:34;;;;;;;12.07;10.23;;;19.20;87.60;;;;;;2073986;28;20034;-85
2021/07/13 01:52:37;;;;;;;11.45;10.25;;;19.20;87.50;;;;;;2082443;28;20096;-85
2021/07/13 01:53:38;;;;;;;11.55;10.35;;;19.20;87.40;;;;;;2074112;28;20076;-85
2021/07/13 01:54:40;;;;;;;10.80;9.70;;;19.20;87.40;;;;;;2081913;28;20052;-86
2021/07/13 01:55:42;;;;;;;10.65;9.55;;;19.20;87.50;;;;;;2074051;28;20041;-85
2021/07/13 01:56:49;;;;;;;11.20;10.10;;;19.20;87.50;;;;;;2074095;28;20014;-85
2021/07/13 01:57:52;;;;;;;11.52;10.32;;;19.10;87.50;;;;;;2082117;28;20028;-85
2021/07/13 01:58:53;;;;;;;11.63;10.30;;;19.10;87.50;;;;;;2082300;28;20033;-86
2021/07/13 01:59:55;;;;;;;11.73;10.30;;;19.10;87.50;;;;;;2081944;28;20541;-85
2021/07/13 02:01:04;;;;;;;11.15;9.98;;;19.20;87.60;;;;;;2074077;28;20080;-83
2021/07/13 02:02:05;;;;;;;10.43;9.38;;;19.10;87.60;;;;;;2074779;28;20095;-83
2021/07/13 02:03:06;;;;;;;10.18;9.13;;;19.10;87.60;;;;;;2073813;28;20061;-83
2021/07/13 02:04:09;;;;;;;10.60;9.50;;;19.20;87.60;;;;;;2073401;28;20062;-82
2021/07/13 02:05:11;;;;;;;10.32;9.23;;;19.20;87.60;;;;;;2074191;28;20029;-85
2021/07/13 02:06:14;;;;;;;10.13;9.02;;;19.20;87.60;;;;;;2074011;28;20033;-85
2021/07/13 02:07:16;;;;;;;9.43;8.43;;;19.20;87.50;;;;;;2068262;28;20027;-85
2021/07/13 02:08:18;;;;;;;9.27;8.25;;;19.20;87.50;;;;;;2057558;28;20022;-86
2021/07/13 02:09:19;;;;;;;9.77;8.77;;;19.30;87.50;;;;;;2058324;28;20035;-86
2021/07/13 02:10:20;;;;;;;9.55;8.55;;;19.30;87.50;;;;;;2078560;28;20062;-85
2021/07/13 02:11:22;;;;;;;9.70;8.70;;;19.30;87.50;;;;;;2058695;28;20035;-85
2021/07/13 02:12:22;;;;;;;9.90;8.35;;;19.30;87.50;;;;;;2063467;28;20019;-85
2021/07/13 02:13:24;;;;;;;9.77;8.77;;;19.30;87.40;;;;;;2079734;28;20034;-85
2021/07/13 02:14:24;;;;;;;9.75;8.75;;;19.30;87.40;;;;;;2071455;28;20057;-85
2021/07/13 02:15:25;;;;;;;8.75;7.82;;;19.30;87.40;;;;;;2063350;28;20042;-86
2021/07/13 02:16:26;;;;;;;9.18;8.27;;;19.30;87.40;;;;;;2070827;28;20097;-85
2021/07/13 02:17:30;;;;;;;9.30;8.07;;;19.30;87.40;;;;;;2078869;28;20113;-86
2021/07/13 02:18:30;;;;;;;8.68;7.78;;;19.30;87.40;;;;;;2077726;28;20022;-86
2021/07/13 02:19:31;;;;;;;9.25;8.30;;;19.40;87.40;;;;;;2082133;28;20531;-85
2021/07/13 02:20:32;;;;;;;9.40;8.40;;;19.40;87.40;;;;;;2082111;28;20029;-86
2021/07/13 02:21:32;;;;;;;10.15;8.63;;;19.30;87.40;;;;;;2073906;28;20519;-85
2021/07/13 02:22:33;;;;;;;10.13;9.10;;;19.40;87.40;;;;;;2065522;28;20162;-85
2021/07/13 02:23:34;;;;;;;10.52;9.32;;;19.40;87.40;;;;;;2057256;28;20031;-86
2021/07/13 02:24:35;;;;;;;10.02;8.63;;;19.40;87.40;;;;;;2065307;28;20026;-85
2021/07/13 02:25:36;;;;;;;9.55;8.55;;;19.30;87.40;;;;;;2065761;28;20097;-86
2021/07/13 02:27:07;;;;;;;10.18;9.10;;;19.30;87.50;;;;;;2074112;28;20046;-85
2021/07/13 02:28:30;;;;;;;9.15;8.25;;;19.30;87.50;;;;;;2075370;28;20458;-85
2021/07/13 02:29:42;;;;;;;9.82;8.55;;;19.30;87.50;;;;;;2084482;28;20036;-85
2021/07/13 02:30:50;;;;;;;10.07;8.98;;;19.30;87.50;;;;;;2081808;28;20408;-85
2021/07/13 02:32:25;;;;;;;8.68;7.80;;;19.30;87.50;;;;;;2074728;28;20034;-85
2021/07/13 02:33:32;;;;;;;8.82;7.93;;;19.30;87.40;;;;;;2086575;28;20423;-85
2021/07/13 02:34:37;;;;;;;9.07;8.18;;;19.30;87.50;;;;;;2081801;28;20545;-85
2021/07/13 02:35:42;;;;;;;8.73;7.82;;;19.30;87.50;;;;;;2081665;28;20075;-85
2021/07/13 02:36:47;;;;;;;9.55;8.20;;;19.30;87.60;;;;;;2082209;28;20116;-84
2021/07/13 02:37:49;;;;;;;8.73;7.70;;;19.30;87.60;;;;;;2081756;28;20064;-85
2021/07/13 02:38:50;;;;;;;9.60;7.78;;;19.30;87.60;;;;;;2057655;28;20035;-85
2021/07/13 02:39:51;;;;;;;8.90;8.00;;;19.30;87.60;;;;;;2065099;28;20049;-84
2021/07/13 02:40:52;;;;;;;9.35;8.35;;;19.30;87.70;;;;;;2073346;28;20096;-85
2021/07/13 02:41:54;;;;;;;9.57;8.50;;;19.30;87.70;;;;;;2065294;28;20421;-85
2021/07/13 02:42:56;;;;;;;9.80;8.40;;;19.30;87.80;;;;;;2073254;28;20092;-85
2021/07/13 02:43:57;;;;;;;9.52;8.52;;;19.30;87.70;;;;;;2078639;28;20129;-85
2021/07/13 02:45:00;;;;;;;9.18;8.18;;;19.30;87.80;;;;;;2081588;28;20534;-85
2021/07/13 02:46:01;;;;;;;8.77;7.88;;;19.30;87.80;;;;;;2073255;28;20033;-85
2021/07/13 02:47:11;;;;;;;11.88;8.00;;;19.30;87.80;;;;;;2073349;28;20034;-85
2021/07/13 02:48:13;;;;;;;9.50;8.25;;;19.30;87.80;;;;;;2076092;28;20030;-84
2021/07/13 02:49:23;;;;;;;8.85;7.88;;;19.30;87.80;;;;;;2081314;28;20034;-85
2021/07/13 02:50:25;;;;;;;9.65;8.65;;;19.30;87.70;;;;;;2074676;28;20036;-85
2021/07/13 02:51:28;;;;;;;8.98;8.07;;;19.30;87.80;;;;;;2073636;28;20065;-85
2021/07/13 02:52:31;;;;;;;9.43;8.32;;;19.30;87.80;;;;;;2065768;28;20118;-85
2021/07/13 02:53:33;;;;;;;10.27;8.80;;;19.30;87.80;;;;;;2065489;28;20468;-85
2021/07/13 02:54:36;;;;;;;9.55;8.55;;;19.30;88.40;;;;;;2081417;28;20033;-85
2021/07/13 02:55:37;;;;;;;8.70;7.80;;;19.30;87.80;;;;;;2073348;28;20374;-84
2021/07/13 02:56:40;;;;;;;9.25;8.25;;;19.30;87.80;;;;;;2065745;28;20507;-85
2021/07/13 02:57:43;;;;;;;9.23;8.32;;;19.30;87.80;;;;;;2081759;28;20399;-85
2021/07/13 02:58:44;;;;;;;9.52;8.52;;;19.30;87.80;;;;;;2081600;28;20034;-85
2021/07/13 02:59:46;;;;;;;9.55;8.43;;;19.30;87.90;;;;;;2065357;28;20031;-85
2021/07/13 03:00:48;;;;;;;9.38;8.25;;;19.30;87.90;;;;;;2065211;28;20041;-85
2021/07/13 03:01:50;;;;;;;9.90;8.90;;;19.30;87.90;;;;;;2072983;28;20500;-86
2021/07/13 03:02:51;;;;;;;10.05;9.05;;;19.30;87.90;;;;;;2073357;28;20026;-85
2021/07/13 03:03:52;;;;;;;9.73;8.73;;;19.30;87.80;;;;;;2073090;28;20034;-85
2021/07/13 03:04:54;;;;;;;10.32;9.23;;;19.30;87.80;;;;;;2065252;28;20030;-85
2021/07/13 03:05:55;;;;;;;10.68;9.57;;;19.20;87.80;;;;;;2049063;28;20418;-85
2021/07/13 03:06:58;;;;;;;9.95;8.95;;;19.20;87.80;;;;;;2065300;28;20073;-85
2021/07/13 03:07:59;;;;;;;9.43;8.43;;;19.30;87.90;;;;;;2073242;28;20077;-84
2021/07/13 03:09:01;;;;;;;10.57;9.48;;;19.20;87.80;;;;;;2073477;28;20395;-85
2021/07/13 03:10:02;;;;;;;9.85;8.85;;;19.20;87.90;;;;;;2065153;28;20037;-85
2021/07/13 03:11:03;;;;;;;9.70;8.65;;;19.20;87.90;;;;;;2057408;28;20071;-85
2021/07/13 03:12:08;;;;;;;9.77;8.75;;;19.20;88.00;;;;;;2064938;28;20076;-85
2021/07/13 03:13:08;;;;;;;9.30;8.23;;;19.20;88.00;;;;;;2058501;28;20082;-85
2021/07/13 03:14:12;;;;;;;9.90;8.90;;;19.20;88.00;;;;;;2073255;28;20488;-86
2021/07/13 03:15:13;;;;;;;9.32;8.30;;;19.20;87.90;;;;;;2073460;28;20041;-85
2021/07/13 03:16:14;;;;;;;10.05;9.00;;;19.30;88.00;;;;;;2065636;28;20216;-85
2021/07/13 03:17:16;;;;;;;9.95;8.95;;;19.30;88.00;;;;;;2073230;28;20026;-85
2021/07/13 03:18:18;;;;;;;10.45;9.15;;;19.30;88.00;;;;;;2088268;28;20025;-85
2021/07/13 03:19:19;;;;;;;10.15;9.07;;;19.30;87.90;;;;;;2089510;28;20025;-85
2021/07/13 03:20:22;;;;;;;10.27;8.98;;;19.30;87.90;;;;;;2065138;28;20515;-84
2021/07/13 03:21:25;;;;;;;9.82;8.82;;;19.30;87.90;;;;;;2065678;28;20026;-85
2021/07/13 03:22:33;;;;;;;10.57;9.30;;;19.30;87.80;;;;;;2089727;28;20033;-85
2021/07/13 03:23:39;;;;;;;10.00;8.75;;;19.30;87.80;;;;;;2089379;28;20483;-85
2021/07/13 03:24:41;;;;;;;9.88;8.88;;;19.30;87.80;;;;;;2081972;28;20415;-85
2021/07/13 03:25:43;;;;;;;9.45;8.55;;;19.30;87.80;;;;;;2081487;28;20048;-85
2021/07/13 03:26:45;;;;;;;10.27;8.63;;;19.30;87.70;;;;;;2081441;28;20032;-85
2021/07/13 03:27:50;;;;;;;9.48;8.48;;;19.30;87.70;;;;;;2089538;28;20021;-85
2021/07/13 03:28:51;;;;;;;10.18;9.10;;;19.30;87.70;;;;;;2089970;28;20076;-85
2021/07/13 03:29:55;;;;;;;10.50;9.23;;;19.30;87.70;;;;;;2089940;28;20032;-85
2021/07/13 03:30:56;;;;;;;9.75;8.70;;;19.30;87.70;;;;;;2089300;28;20039;-85
2021/07/13 03:31:58;;;;;;;10.68;9.40;;;19.30;87.80;;;;;;2081201;28;20032;-85
2021/07/13 03:32:59;;;;;;;10.32;8.88;;;19.40;87.80;;;;;;2081180;28;20483;-86
2021/07/13 03:34:02;;;;;;;10.35;9.05;;;19.30;87.70;;;;;;2089153;28;20442;-85
2021/07/13 03:35:04;;;;;;;10.65;9.55;;;19.40;87.80;;;;;;2088231;28;20084;-85
2021/07/13 03:36:05;;;;;;;10.13;9.13;;;19.40;87.80;;;;;;2089528;28;20028;-85
2021/07/13 03:37:06;;;;;;;10.73;9.63;;;19.40;87.80;;;;;;2089231;28;20202;-85
2021/07/13 03:38:08;;;;;;;10.48;9.38;;;19.40;87.70;;;;;;2064970;28;20497;-85
2021/07/13 03:39:09;;;;;;;10.63;9.52;;;19.40;87.70;;;;;;2073398;28;20025;-85
2021/07/13 03:40:11;;;;;;;11.02;9.40;;;19.40;87.70;;;;;;2081338;28;20107;-85
2021/07/13 03:41:13;;;;;;;10.45;9.40;;;19.40;87.70;;;;;;2072952;28;20026;-85
2021/07/13 03:42:14;;;;;;;10.77;9.68;;;19.40;87.70;;;;;;2064503;28;20026;-85
2021/07/13 03:43:15;;;;;;;10.15;9.07;;;19.40;87.70;;;;;;2057494;28;20035;-86
2021/07/13 03:44:16;;;;;;;10.93;9.55;;;19.40;87.70;;;;;;2072966;28;20053;-85
2021/07/13 03:45:17;;;;;;;10.98;9.65;;;19.40;87.80;;;;;;2064894;28;20033;-85
2021/07/13 03:46:18;;;;;;;10.77;9.43;;;19.40;87.80;;;;;;2072929;28;20049;-85
2021/07/13 03:47:20;;;;;;;10.73;9.38;;;19.40;87.80;;;;;;2072902;28;20033;-85
2021/07/13 03:48:22;;;;;;;10.32;9.23;;;19.40;87.80;;;;;;2073040;28;20080;-85
2021/07/13 03:49:24;;;;;;;10.32;9.23;;;19.40;87.90;;;;;;2073053;28;20574;-85
2021/07/13 03:50:32;;;;;;;10.45;9.35;;;19.40;87.90;;;;;;2065152;28;20030;-85
2021/07/13 03:51:41;;;;;;;10.13;9.05;;;19.40;87.90;;;;;;2073836;28;20030;-85
2021/07/13 03:52:42;;;;;;;10.25;9.13;;;19.40;87.90;;;;;;2082379;28;20515;-85
2021/07/13 03:53:43;;;;;;;10.57;9.23;;;19.40;87.90;;;;;;2081220;28;20034;-85
2021/07/13 03:54:45;;;;;;;10.25;9.20;;;19.40;87.90;;;;;;2081155;28;20550;-85
2021/07/13 03:55:46;;;;;;;10.55;9.45;;;19.40;88.00;;;;;;2081204;28;20122;-85
2021/07/13 03:56:49;;;;;;;10.00;8.88;;;19.40;88.00;;;;;;2089368;28;20029;-85
2021/07/13 03:57:52;;;;;;;10.77;9.63;;;19.40;88.00;;;;;;2089509;28;20032;-85
2021/07/13 03:58:55;;;;;;;10.43;9.32;;;19.40;88.00;;;;;;2081046;28;20371;-84
2021/07/13 03:59:55;;;;;;;11.73;9.07;;;19.40;88.10;;;;;;2078927;28;20045;-85
2021/07/13 04:00:56;;;;;;;10.50;9.48;;;19.40;88.10;;;;;;2064589;28;20022;-85
2021/07/13 04:01:57;;;;;;;10.65;9.02;;;19.40;88.10;;;;;;2056132;28;20075;-85
2021/07/13 04:02:58;;;;;;;10.60;9.52;;;19.40;88.10;;;;;;2064695;28;20038;-85
2021/07/13 04:03:59;;;;;;;10.35;9.32;;;19.40;88.10;;;;;;2067245;28;20022;-85
2021/07/13 04:04:59;;;;;;;10.15;9.13;;;19.40;88.20;;;;;;2081128;28;20102;-85
2021/07/13 04:06:00;;;;;;;11.60;9.80;;;19.40;88.20;;;;;;2072706;28;20121;-85
2021/07/13 04:07:03;;;;;;;10.90;9.73;;;19.40;88.20;;;;;;2056807;28;20034;-85
2021/07/13 04:08:04;;;;;;;11.23;9.52;;;19.40;88.20;;;;;;2057240;28;20062;-84
2021/07/13 04:09:07;;;;;;;11.30;10.10;;;19.40;88.20;;;;;;2049200;28;20062;-85
2021/07/13 04:10:12;;;;;;;11.27;10.07;;;19.40;88.20;;;;;;2057215;28;20031;-85
2021/07/13 04:11:12;;;;;;;11.05;9.85;;;19.40;88.20;;;;;;2065848;28;20532;-84
2021/07/13 04:12:13;;;;;;;11.50;10.30;;;19.40;88.20;;;;;;2064788;28;20085;-85
2021/07/13 04:13:14;;;;;;;10.60;9.50;;;19.40;88.20;;;;;;2064634;28;20138;-85
2021/07/13 04:14:15;;;;;;;11.73;10.07;;;19.40;88.20;;;;;;2064976;28;20489;-85
2021/07/13 04:15:16;;;;;;;11.18;9.93;;;19.40;88.20;;;;;;2056878;28;20031;-85
2021/07/13 04:16:16;;;;;;;11.75;10.20;;;19.40;88.30;;;;;;2056498;28;20027;-84
2021/07/13 04:17:17;;;;;;;12.02;10.82;;;19.40;89.00;;;;;;2056588;28;20031;-85
2021/07/13 04:18:18;;;;;;;13.88;11.45;;;19.40;88.40;;;;;;2048839;29;20019;-85
2021/07/13 04:19:18;;;;;;;12.57;11.27;;;19.40;88.40;;;;;;2056921;28;20497;-85
2021/07/13 04:20:19;;;;;;;13.18;11.70;;;19.40;88.50;;;;;;2064778;28;20061;-85
2021/07/13 04:21:20;;;;;;;13.45;12.05;;;19.40;88.50;;;;;;2056584;28;20023;-84
2021/07/13 04:22:21;;;;;;;13.60;12.20;;;19.40;88.60;;;;;;2072864;28;20091;-85
2021/07/13 04:23:21;;;;;;;14.52;12.75;;;19.50;88.60;;;;;;2072796;28;20451;-85
2021/07/13 04:24:22;;;;;;;13.50;12.10;;;19.50;88.60;;;;;;2056751;28;20023;-85
2021/07/13 04:25:23;;;;;;;13.75;12.25;;;19.50;88.70;;;;;;2040860;29;20024;-85
2021/07/13 04:26:24;;;;;;;14.07;12.57;;;19.50;88.70;;;;;;2064354;28;20441;-85
2021/07/13 04:27:24;;;;;;;15.02;13.27;;;19.50;89.30;;;;;;2072712;28;20514;-85
2021/07/13 04:28:31;;;;;;;14.13;12.63;;;19.50;88.70;;;;;;2064436;28;20031;-85
2021/07/13 04:29:31;;;;;;;14.00;12.60;;;19.50;88.80;;;;;;2081850;28;20029;-85
2021/07/13 04:30:32;;;;;;;13.77;11.93;;;19.50;88.70;;;;;;2080973;28;20100;-85
2021/07/13 04:31:33;;;;;;;14.80;13.20;;;19.50;88.70;;;;;;2056946;28;20445;-85
2021/07/13 04:32:34;;;;;;;14.05;12.55;;;19.50;88.70;;;;;;2056974;28;20436;-85
2021/07/13 04:33:36;;;;;;;15.35;13.52;;;19.50;88.70;;;;;;2073539;28;20038;-85
2021/07/13 04:34:36;;;;;;;15.52;13.55;;;19.50;88.70;;;;;;2097252;28;20478;-85
2021/07/13 04:35:39;;;;;;;15.68;14.02;;;19.50;88.70;;;;;;2081079;28;20030;-85
2021/07/13 04:36:41;;;;;;;17.05;14.07;;;19.50;88.70;;;;;;2073817;28;20416;-85
2021/07/13 04:37:42;;;;;;;18.23;15.50;;;19.50;88.70;;;;;;2073950;28;20496;-85
2021/07/13 04:38:42;;;;;;;19.85;17.67;;;19.50;88.70;;;;;;2081723;28;20057;-85
2021/07/13 04:39:43;;;;;;;20.35;17.13;;;19.50;88.80;;;;;;2073621;28;20072;-85
2021/07/13 04:40:44;;;;;;;17.42;15.15;;;19.40;88.90;;;;;;2073510;28;20120;-85
2021/07/13 04:41:45;;;;;;;18.52;16.17;;;19.40;89.00;;;;;;2077470;28;20033;-85
2021/07/13 04:42:45;;;;;;;18.67;15.07;;;19.30;89.00;;;;;;2064092;28;20054;-84
2021/07/13 04:43:46;;;;;;;18.20;15.70;;;19.30;89.10;;;;;;2064943;28;20065;-85
2021/07/13 04:44:47;;;;;;;18.77;16.15;;;19.30;89.20;;;;;;2048735;29;20023;-84
2021/07/13 04:45:48;;;;;;;17.95;15.73;;;19.30;89.30;;;;;;2048848;28;20035;-85
2021/07/13 04:46:49;;;;;;;18.83;16.55;;;19.20;89.30;;;;;;2072783;28;20425;-85
2021/07/13 04:47:50;;;;;;;20.17;17.45;;;19.30;89.40;;;;;;2074161;28;20033;-85
2021/07/13 04:48:51;;;;;;;19.60;17.15;;;19.20;89.40;;;;;;2050448;28;20059;-85
2021/07/13 04:49:51;;;;;;;18.60;16.58;;;19.20;89.40;;;;;;2058517;28;20030;-85
2021/07/13 04:50:52;;;;;;;18.58;16.45;;;19.20;89.60;;;;;;2050170;28;20028;-85
2021/07/13 04:51:53;;;;;;;21.27;18.80;;;19.10;89.60;;;;;;2050409;28;20037;-84
2021/07/13 04:52:53;;;;;;;21.08;17.67;;;19.10;89.60;;;;;;2058069;28;20042;-85
2021/07/13 04:53:54;;;;;;;19.20;16.77;;;19.10;89.70;;;;;;2058401;28;20043;-85
2021/07/13 04:54:55;;;;;;;19.58;17.10;;;19.10;89.70;;;;;;2066195;28;20114;-85
2021/07/13 04:55:55;;;;;;;19.92;16.65;;;19.20;89.80;;;;;;2058083;28;20033;-85
2021/07/13 04:56:57;;;;;;;18.48;16.33;;;19.10;89.70;;;;;;2058214;28;20463;-86
2021/07/13 04:57:58;;;;;;;20.85;17.25;;;19.20;89.80;;;;;;2058211;28;20031;-85
2021/07/13 04:58:58;;;;;;;18.55;16.48;;;19.10;89.70;;;;;;2058055;28;20038;-86
2021/07/13 04:59:59;;;;;;;20.15;16.70;;;19.10;89.80;;;;;;2063974;28;20030;-85
2021/07/13 05:01:00;;;;;;;19.92;16.38;;;19.10;89.80;;;;;;2058037;28;20065;-85
2021/07/13 05:02:02;;;;;;;19.13;16.70;;;19.10;90.00;;;;;;2042393;28;20082;-85
2021/07/13 05:03:02;;;;;;;18.67;15.52;;;19.00;90.00;;;;;;2064258;28;20101;-85
2021/07/13 05:04:03;;;;;;;18.08;15.77;;;19.00;90.00;;;;;;2065906;28;20031;-85
2021/07/13 05:05:06;;;;;;;17.50;15.20;;;19.00;90.00;;;;;;2066079;28;20043;-85
2021/07/13 05:06:06;;;;;;;18.20;16.20;;;19.00;90.00;;;;;;2066556;28;20110;-85
2021/07/13 05:07:07;;;;;;;18.10;16.02;;;19.10;90.00;;;;;;2066292;28;20105;-85
2021/07/13 05:08:08;;;;;;;18.13;15.68;;;19.10;90.00;;;;;;2057937;28;20058;-85
2021/07/13 05:09:08;;;;;;;17.67;15.77;;;19.00;90.00;;;;;;2066154;28;20042;-85
2021/07/13 05:10:10;;;;;;;16.65;14.88;;;19.00;90.00;;;;;;2057540;28;20030;-85
2021/07/13 05:11:11;;;;;;;16.55;14.77;;;19.10;90.00;;;;;;2066304;28;20066;-85
2021/07/13 05:12:11;;;;;;;16.25;14.38;;;19.10;90.00;;;;;;2074280;28;20026;-85
2021/07/13 05:13:12;;;;;;;16.25;14.55;;;19.00;90.00;;;;;;2069390;28;20030;-85
2021/07/13 05:14:13;;;;;;;17.13;15.32;;;19.10;90.00;;;;;;2065895;28;20560;-85
2021/07/13 05:15:15;;;;;;;17.13;15.30;;;19.10;90.00;;;;;;2058041;28;20037;-85
2021/07/13 05:16:16;;;;;;;15.52;13.93;;;19.10;90.00;;;;;;2066399;28;20092;-85
2021/07/13 05:17:16;;;;;;;17.13;15.00;;;19.00;90.00;;;;;;2066621;28;20104;-85
2021/07/13 05:18:17;;;;;;;18.20;16.27;;;19.10;90.00;;;;;;2065980;28;20023;-85
2021/07/13 05:19:18;;;;;;;18.40;16.40;;;19.00;90.00;;;;;;2074086;28;20030;-85
2021/07/13 05:20:18;;;;;;;18.70;16.55;;;19.00;90.00;;;;;;2065613;28;20094;-84
2021/07/13 05:21:19;;;;;;;18.52;16.52;;;19.00;90.00;;;;;;2058044;28;20030;-85
2021/07/13 05:22:20;;;;;;;17.48;15.68;;;18.90;90.00;;;;;;2074193;28;20388;-85
2021/07/13 05:23:21;;;;;;;18.08;16.10;;;18.90;90.00;;;;;;2074119;28;20034;-84